sensor_id;sensor_type;location;lat;lon;timestamp;P1;durP1;ratioP1;P2;durP2;ratioP2
13014;SDS011;6573;57.696;11.950;2023-01-26T00:00:15;28.47;;;7.67;;
13014;SDS011;6573;57.696;11.950;2023-01-26T00:02:45;17.83;;;6.37;;
13014;SDS011;6573;57.696;11.950;2023-01-26T00:05:14;22.43;;;6.20;;
13014;SDS011;6573;57.696;11.950;2023-01-26T00:07:48;20.33;;;6.73;;
13014;SDS011;6573;57.696;11.950;2023-01-26T00:10:17;21.83;;;6.80;;
13014;SDS011;6573;57.696;11.950;2023-01-26T00:12:46;23.30;;;6.50;;
13014;SDS011;6573;57.696;11.950;2023-01-26T00:15:17;24.53;;;6.93;;
13014;SDS011;6573;57.696;11.950;2023-01-26T00:17:47;22.97;;;6.60;;
13014;SDS011;6573;57.696;11.950;2023-01-26T00:20:24;18.90;;;6.17;;
13014;SDS011;6573;57.696;11.950;2023-01-26T00:22:58;25.93;;;7.40;;
13014;SDS011;6573;57.696;11.950;2023-01-26T00:25:27;26.13;;;6.53;;
13014;SDS011;6573;57.696;11.950;2023-01-26T00:27:58;27.73;;;6.87;;
13014;SDS011;6573;57.696;11.950;2023-01-26T00:30:27;24.60;;;6.73;;
13014;SDS011;6573;57.696;11.950;2023-01-26T00:32:56;29.93;;;6.57;;
13014;SDS011;6573;57.696;11.950;2023-01-26T00:35:29;29.87;;;7.23;;
13014;SDS011;6573;57.696;11.950;2023-01-26T00:38:02;27.30;;;6.93;;
13014;SDS011;6573;57.696;11.950;2023-01-26T00:40:31;33.60;;;7.23;;
13014;SDS011;6573;57.696;11.950;2023-01-26T00:43:03;27.93;;;6.40;;
13014;SDS011;6573;57.696;11.950;2023-01-26T00:45:33;26.40;;;6.30;;
13014;SDS011;6573;57.696;11.950;2023-01-26T00:48:03;28.10;;;6.50;;
13014;SDS011;6573;57.696;11.950;2023-01-26T00:50:33;31.23;;;6.17;;
13014;SDS011;6573;57.696;11.950;2023-01-26T00:53:06;25.37;;;6.00;;
13014;SDS011;6573;57.696;11.950;2023-01-26T00:55:37;32.10;;;6.43;;
13014;SDS011;6573;57.696;11.950;2023-01-26T00:58:06;26.43;;;5.70;;
13014;SDS011;6573;57.696;11.950;2023-01-26T01:00:36;29.33;;;5.60;;
13014;SDS011;6573;57.696;11.950;2023-01-26T01:03:06;38.57;;;5.73;;
13014;SDS011;6573;57.696;11.950;2023-01-26T01:05:37;25.43;;;5.03;;
13014;SDS011;6573;57.696;11.950;2023-01-26T01:08:09;37.20;;;5.83;;
13014;SDS011;6573;57.696;11.950;2023-01-26T01:10:39;31.00;;;5.57;;
13014;SDS011;6573;57.696;11.950;2023-01-26T01:13:11;35.77;;;5.53;;
13014;SDS011;6573;57.696;11.950;2023-01-26T01:15:40;34.37;;;6.33;;
13014;SDS011;6573;57.696;11.950;2023-01-26T01:18:11;27.30;;;5.27;;
13014;SDS011;6573;57.696;11.950;2023-01-26T01:20:42;36.27;;;5.63;;
13014;SDS011;6573;57.696;11.950;2023-01-26T01:23:13;26.20;;;5.40;;
13014;SDS011;6573;57.696;11.950;2023-01-26T01:25:42;27.27;;;5.33;;
13014;SDS011;6573;57.696;11.950;2023-01-26T01:28:11;34.60;;;6.07;;
13014;SDS011;6573;57.696;11.950;2023-01-26T01:30:40;34.77;;;5.73;;
13014;SDS011;6573;57.696;11.950;2023-01-26T01:33:12;34.60;;;5.73;;
13014;SDS011;6573;57.696;11.950;2023-01-26T01:35:52;34.93;;;6.00;;
13014;SDS011;6573;57.696;11.950;2023-01-26T01:38:27;37.07;;;5.83;;
13014;SDS011;6573;57.696;11.950;2023-01-26T01:40:57;39.80;;;5.53;;
13014;SDS011;6573;57.696;11.950;2023-01-26T01:43:27;36.50;;;6.00;;
13014;SDS011;6573;57.696;11.950;2023-01-26T01:45:57;36.30;;;5.73;;
13014;SDS011;6573;57.696;11.950;2023-01-26T01:48:30;35.47;;;6.03;;
13014;SDS011;6573;57.696;11.950;2023-01-26T01:51:07;30.10;;;5.57;;
13014;SDS011;6573;57.696;11.950;2023-01-26T01:53:49;43.60;;;7.20;;
13014;SDS011;6573;57.696;11.950;2023-01-26T01:56:22;39.70;;;6.00;;
13014;SDS011;6573;57.696;11.950;2023-01-26T01:58:54;42.10;;;6.60;;
13014;SDS011;6573;57.696;11.950;2023-01-26T02:01:26;41.20;;;6.70;;
13014;SDS011;6573;57.696;11.950;2023-01-26T02:03:57;40.70;;;6.50;;
13014;SDS011;6573;57.696;11.950;2023-01-26T02:06:38;41.90;;;6.40;;
13014;SDS011;6573;57.696;11.950;2023-01-26T02:09:13;36.37;;;6.13;;
13014;SDS011;6573;57.696;11.950;2023-01-26T02:11:58;42.47;;;6.00;;
13014;SDS011;6573;57.696;11.950;2023-01-26T02:14:30;35.90;;;6.07;;
13014;SDS011;6573;57.696;11.950;2023-01-26T02:17:01;42.73;;;7.00;;
13014;SDS011;6573;57.696;11.950;2023-01-26T02:19:31;35.97;;;5.87;;
13014;SDS011;6573;57.696;11.950;2023-01-26T02:22:10;35.83;;;5.77;;
13014;SDS011;6573;57.696;11.950;2023-01-26T02:24:46;45.03;;;6.60;;
13014;SDS011;6573;57.696;11.950;2023-01-26T02:27:16;36.53;;;5.70;;
13014;SDS011;6573;57.696;11.950;2023-01-26T02:29:45;41.13;;;5.87;;
13014;SDS011;6573;57.696;11.950;2023-01-26T02:32:16;37.97;;;6.00;;
13014;SDS011;6573;57.696;11.950;2023-01-26T02:34:46;44.33;;;6.87;;
13014;SDS011;6573;57.696;11.950;2023-01-26T02:37:20;42.37;;;6.13;;
13014;SDS011;6573;57.696;11.950;2023-01-26T02:39:52;37.27;;;6.63;;
13014;SDS011;6573;57.696;11.950;2023-01-26T02:42:32;45.50;;;6.10;;
13014;SDS011;6573;57.696;11.950;2023-01-26T02:45:07;46.73;;;5.87;;
13014;SDS011;6573;57.696;11.950;2023-01-26T02:47:37;36.20;;;5.00;;
13014;SDS011;6573;57.696;11.950;2023-01-26T02:50:07;35.43;;;5.60;;
13014;SDS011;6573;57.696;11.950;2023-01-26T02:52:37;35.80;;;6.00;;
13014;SDS011;6573;57.696;11.950;2023-01-26T02:55:07;38.47;;;5.37;;
13014;SDS011;6573;57.696;11.950;2023-01-26T02:57:56;33.70;;;5.53;;
13014;SDS011;6573;57.696;11.950;2023-01-26T03:00:27;30.97;;;5.30;;
13014;SDS011;6573;57.696;11.950;2023-01-26T03:02:58;29.57;;;5.00;;
13014;SDS011;6573;57.696;11.950;2023-01-26T03:05:29;29.17;;;4.70;;
13014;SDS011;6573;57.696;11.950;2023-01-26T03:07:58;28.60;;;4.53;;
13014;SDS011;6573;57.696;11.950;2023-01-26T03:10:28;34.87;;;5.07;;
13014;SDS011;6573;57.696;11.950;2023-01-26T03:13:01;37.03;;;5.67;;
13014;SDS011;6573;57.696;11.950;2023-01-26T03:15:31;30.53;;;4.60;;
13014;SDS011;6573;57.696;11.950;2023-01-26T03:18:14;38.53;;;5.40;;
13014;SDS011;6573;57.696;11.950;2023-01-26T03:23:55;29.93;;;4.70;;
13014;SDS011;6573;57.696;11.950;2023-01-26T03:26:44;29.90;;;4.40;;
13014;SDS011;6573;57.696;11.950;2023-01-26T03:29:33;22.47;;;3.37;;
13014;SDS011;6573;57.696;11.950;2023-01-26T03:32:03;27.07;;;3.97;;
13014;SDS011;6573;57.696;11.950;2023-01-26T03:34:35;22.13;;;3.20;;
13014;SDS011;6573;57.696;11.950;2023-01-26T03:37:05;19.53;;;3.57;;
13014;SDS011;6573;57.696;11.950;2023-01-26T03:39:34;24.00;;;3.80;;
13014;SDS011;6573;57.696;11.950;2023-01-26T03:42:21;20.57;;;3.37;;
13014;SDS011;6573;57.696;11.950;2023-01-26T03:45:09;17.30;;;2.50;;
13014;SDS011;6573;57.696;11.950;2023-01-26T03:48:01;14.30;;;2.90;;
13014;SDS011;6573;57.696;11.950;2023-01-26T03:50:49;18.03;;;3.30;;
13014;SDS011;6573;57.696;11.950;2023-01-26T03:53:36;18.77;;;2.93;;
13014;SDS011;6573;57.696;11.950;2023-01-26T03:56:24;15.97;;;2.43;;
13014;SDS011;6573;57.696;11.950;2023-01-26T03:58:59;19.93;;;3.30;;
13014;SDS011;6573;57.696;11.950;2023-01-26T04:01:36;15.70;;;2.90;;
13014;SDS011;6573;57.696;11.950;2023-01-26T04:04:07;17.03;;;3.30;;
13014;SDS011;6573;57.696;11.950;2023-01-26T04:06:57;21.97;;;3.50;;
13014;SDS011;6573;57.696;11.950;2023-01-26T04:09:43;19.37;;;3.10;;
13014;SDS011;6573;57.696;11.950;2023-01-26T04:12:13;17.67;;;2.70;;
13014;SDS011;6573;57.696;11.950;2023-01-26T04:14:43;15.90;;;3.00;;
13014;SDS011;6573;57.696;11.950;2023-01-26T04:17:34;19.10;;;3.30;;
13014;SDS011;6573;57.696;11.950;2023-01-26T04:20:20;15.00;;;2.80;;
13014;SDS011;6573;57.696;11.950;2023-01-26T04:23:14;14.13;;;2.77;;
13014;SDS011;6573;57.696;11.950;2023-01-26T04:25:45;16.27;;;2.70;;
13014;SDS011;6573;57.696;11.950;2023-01-26T04:28:15;13.87;;;2.83;;
13014;SDS011;6573;57.696;11.950;2023-01-26T04:30:44;16.43;;;3.20;;
13014;SDS011;6573;57.696;11.950;2023-01-26T04:33:14;13.50;;;3.10;;
13014;SDS011;6573;57.696;11.950;2023-01-26T04:35:44;14.23;;;3.07;;
13014;SDS011;6573;57.696;11.950;2023-01-26T04:38:12;16.27;;;3.00;;
13014;SDS011;6573;57.696;11.950;2023-01-26T04:40:42;14.10;;;3.67;;
13014;SDS011;6573;57.696;11.950;2023-01-26T04:43:13;15.87;;;3.40;;
13014;SDS011;6573;57.696;11.950;2023-01-26T04:45:42;16.13;;;3.20;;
13014;SDS011;6573;57.696;11.950;2023-01-26T04:48:11;17.73;;;3.37;;
13014;SDS011;6573;57.696;11.950;2023-01-26T04:50:44;9.67;;;2.63;;
13014;SDS011;6573;57.696;11.950;2023-01-26T04:53:23;20.67;;;9.90;;
13014;SDS011;6573;57.696;11.950;2023-01-26T04:55:54;13.90;;;3.10;;
13014;SDS011;6573;57.696;11.950;2023-01-26T04:58:24;9.93;;;2.40;;
13014;SDS011;6573;57.696;11.950;2023-01-26T05:00:56;11.67;;;2.17;;
13014;SDS011;6573;57.696;11.950;2023-01-26T05:03:26;13.10;;;2.73;;
13014;SDS011;6573;57.696;11.950;2023-01-26T05:05:57;11.43;;;2.77;;
13014;SDS011;6573;57.696;11.950;2023-01-26T05:08:26;18.20;;;3.17;;
13014;SDS011;6573;57.696;11.950;2023-01-26T05:10:55;14.43;;;3.20;;
13014;SDS011;6573;57.696;11.950;2023-01-26T05:13:27;13.00;;;2.70;;
13014;SDS011;6573;57.696;11.950;2023-01-26T05:15:58;11.27;;;2.73;;
13014;SDS011;6573;57.696;11.950;2023-01-26T05:18:28;10.47;;;3.20;;
13014;SDS011;6573;57.696;11.950;2023-01-26T05:20:58;13.07;;;3.23;;
13014;SDS011;6573;57.696;11.950;2023-01-26T05:23:29;8.90;;;2.60;;
13014;SDS011;6573;57.696;11.950;2023-01-26T05:25:58;10.33;;;3.63;;
13014;SDS011;6573;57.696;11.950;2023-01-26T05:28:27;16.17;;;3.97;;
13014;SDS011;6573;57.696;11.950;2023-01-26T05:30:57;16.00;;;3.60;;
13014;SDS011;6573;57.696;11.950;2023-01-26T05:33:26;12.10;;;2.80;;
13014;SDS011;6573;57.696;11.950;2023-01-26T05:36:02;15.70;;;3.70;;
13014;SDS011;6573;57.696;11.950;2023-01-26T05:38:34;15.17;;;3.27;;
13014;SDS011;6573;57.696;11.950;2023-01-26T05:41:05;14.13;;;3.00;;
13014;SDS011;6573;57.696;11.950;2023-01-26T05:43:34;15.27;;;3.50;;
13014;SDS011;6573;57.696;11.950;2023-01-26T05:46:04;10.43;;;3.20;;
13014;SDS011;6573;57.696;11.950;2023-01-26T05:48:34;14.40;;;3.00;;
13014;SDS011;6573;57.696;11.950;2023-01-26T05:53:36;16.20;;;3.53;;
13014;SDS011;6573;57.696;11.950;2023-01-26T05:56:08;11.47;;;2.97;;
13014;SDS011;6573;57.696;11.950;2023-01-26T05:58:38;8.07;;;2.87;;
13014;SDS011;6573;57.696;11.950;2023-01-26T06:01:10;12.93;;;3.43;;
13014;SDS011;6573;57.696;11.950;2023-01-26T06:03:42;15.57;;;3.13;;
13014;SDS011;6573;57.696;11.950;2023-01-26T06:06:20;17.80;;;3.70;;
13014;SDS011;6573;57.696;11.950;2023-01-26T06:08:50;11.17;;;2.90;;
13014;SDS011;6573;57.696;11.950;2023-01-26T06:11:19;16.63;;;3.00;;
13014;SDS011;6573;57.696;11.950;2023-01-26T06:13:52;14.93;;;3.63;;
13014;SDS011;6573;57.696;11.950;2023-01-26T06:17:10;14.80;;;3.60;;
13014;SDS011;6573;57.696;11.950;2023-01-26T06:19:33;15.67;;;3.70;;
13014;SDS011;6573;57.696;11.950;2023-01-26T06:25:17;12.00;;;2.43;;
13014;SDS011;6573;57.696;11.950;2023-01-26T06:27:46;13.10;;;2.80;;
13014;SDS011;6573;57.696;11.950;2023-01-26T06:30:14;18.93;;;3.47;;
13014;SDS011;6573;57.696;11.950;2023-01-26T06:32:45;12.93;;;3.00;;
13014;SDS011;6573;57.696;11.950;2023-01-26T06:35:15;12.33;;;2.83;;
13014;SDS011;6573;57.696;11.950;2023-01-26T06:37:45;17.37;;;3.10;;
13014;SDS011;6573;57.696;11.950;2023-01-26T06:40:17;12.77;;;3.10;;
13014;SDS011;6573;57.696;11.950;2023-01-26T06:42:46;12.93;;;3.00;;
13014;SDS011;6573;57.696;11.950;2023-01-26T06:45:18;12.07;;;2.70;;
13014;SDS011;6573;57.696;11.950;2023-01-26T06:47:48;16.53;;;3.23;;
13014;SDS011;6573;57.696;11.950;2023-01-26T06:50:18;9.33;;;2.60;;
13014;SDS011;6573;57.696;11.950;2023-01-26T06:52:49;8.53;;;2.73;;
13014;SDS011;6573;57.696;11.950;2023-01-26T06:55:21;12.93;;;2.90;;
13014;SDS011;6573;57.696;11.950;2023-01-26T06:57:55;13.40;;;2.93;;
13014;SDS011;6573;57.696;11.950;2023-01-26T07:00:23;14.97;;;3.17;;
13014;SDS011;6573;57.696;11.950;2023-01-26T07:02:52;14.63;;;2.83;;
13014;SDS011;6573;57.696;11.950;2023-01-26T07:05:20;13.63;;;3.10;;
13014;SDS011;6573;57.696;11.950;2023-01-26T07:07:49;13.17;;;3.73;;
13014;SDS011;6573;57.696;11.950;2023-01-26T07:10:17;12.13;;;3.53;;
13014;SDS011;6573;57.696;11.950;2023-01-26T07:12:47;18.07;;;4.20;;
13014;SDS011;6573;57.696;11.950;2023-01-26T07:15:16;13.33;;;4.07;;
13014;SDS011;6573;57.696;11.950;2023-01-26T07:17:44;14.07;;;4.57;;
13014;SDS011;6573;57.696;11.950;2023-01-26T07:20:13;15.53;;;4.00;;
13014;SDS011;6573;57.696;11.950;2023-01-26T07:22:41;17.13;;;4.80;;
13014;SDS011;6573;57.696;11.950;2023-01-26T07:25:10;10.77;;;4.07;;
13014;SDS011;6573;57.696;11.950;2023-01-26T07:27:38;10.90;;;3.90;;
13014;SDS011;6573;57.696;11.950;2023-01-26T07:30:09;14.20;;;5.70;;
13014;SDS011;6573;57.696;11.950;2023-01-26T07:32:40;14.17;;;5.13;;
13014;SDS011;6573;57.696;11.950;2023-01-26T07:35:09;13.87;;;5.20;;
13014;SDS011;6573;57.696;11.950;2023-01-26T07:37:37;9.93;;;4.40;;
13014;SDS011;6573;57.696;11.950;2023-01-26T07:40:06;9.60;;;4.50;;
13014;SDS011;6573;57.696;11.950;2023-01-26T07:42:36;11.00;;;4.17;;
13014;SDS011;6573;57.696;11.950;2023-01-26T07:45:04;10.60;;;4.63;;
13014;SDS011;6573;57.696;11.950;2023-01-26T07:47:35;8.60;;;4.30;;
13014;SDS011;6573;57.696;11.950;2023-01-26T07:50:04;9.10;;;4.70;;
13014;SDS011;6573;57.696;11.950;2023-01-26T07:52:32;9.93;;;4.20;;
13014;SDS011;6573;57.696;11.950;2023-01-26T07:55:01;8.57;;;4.00;;
13014;SDS011;6573;57.696;11.950;2023-01-26T07:57:30;8.80;;;3.87;;
13014;SDS011;6573;57.696;11.950;2023-01-26T08:00:00;8.97;;;3.83;;
13014;SDS011;6573;57.696;11.950;2023-01-26T08:02:29;10.33;;;5.00;;
13014;SDS011;6573;57.696;11.950;2023-01-26T08:04:59;10.17;;;4.70;;
13014;SDS011;6573;57.696;11.950;2023-01-26T08:07:28;5.73;;;3.33;;
13014;SDS011;6573;57.696;11.950;2023-01-26T08:09:56;11.40;;;3.60;;
13014;SDS011;6573;57.696;11.950;2023-01-26T08:12:25;9.63;;;3.80;;
13014;SDS011;6573;57.696;11.950;2023-01-26T08:14:54;7.33;;;3.40;;
13014;SDS011;6573;57.696;11.950;2023-01-26T08:17:22;9.77;;;4.00;;
13014;SDS011;6573;57.696;11.950;2023-01-26T08:19:51;9.27;;;4.10;;
13014;SDS011;6573;57.696;11.950;2023-01-26T08:22:20;10.13;;;3.60;;
13014;SDS011;6573;57.696;11.950;2023-01-26T08:24:49;7.57;;;3.43;;
13014;SDS011;6573;57.696;11.950;2023-01-26T08:27:17;9.67;;;3.90;;
13014;SDS011;6573;57.696;11.950;2023-01-26T08:29:45;8.53;;;3.70;;
13014;SDS011;6573;57.696;11.950;2023-01-26T08:32:14;9.27;;;4.13;;
13014;SDS011;6573;57.696;11.950;2023-01-26T08:34:42;9.47;;;4.40;;
13014;SDS011;6573;57.696;11.950;2023-01-26T08:37:10;7.43;;;3.90;;
13014;SDS011;6573;57.696;11.950;2023-01-26T08:39:40;12.90;;;5.10;;
13014;SDS011;6573;57.696;11.950;2023-01-26T08:42:08;9.77;;;3.20;;
13014;SDS011;6573;57.696;11.950;2023-01-26T08:44:37;6.63;;;3.17;;
13014;SDS011;6573;57.696;11.950;2023-01-26T08:47:05;6.93;;;3.30;;
13014;SDS011;6573;57.696;11.950;2023-01-26T08:49:33;6.27;;;3.27;;
13014;SDS011;6573;57.696;11.950;2023-01-26T08:52:02;7.03;;;3.10;;
13014;SDS011;6573;57.696;11.950;2023-01-26T08:54:33;4.70;;;2.83;;
13014;SDS011;6573;57.696;11.950;2023-01-26T08:57:03;4.43;;;2.70;;
13014;SDS011;6573;57.696;11.950;2023-01-26T08:59:31;5.50;;;2.70;;
13014;SDS011;6573;57.696;11.950;2023-01-26T09:02:00;5.17;;;2.63;;
13014;SDS011;6573;57.696;11.950;2023-01-26T09:04:29;6.37;;;2.60;;
13014;SDS011;6573;57.696;11.950;2023-01-26T09:06:58;6.60;;;3.10;;
13014;SDS011;6573;57.696;11.950;2023-01-26T09:09:26;5.33;;;2.60;;
13014;SDS011;6573;57.696;11.950;2023-01-26T09:11:54;4.23;;;2.60;;
13014;SDS011;6573;57.696;11.950;2023-01-26T09:14:25;6.33;;;3.43;;
13014;SDS011;6573;57.696;11.950;2023-01-26T09:16:54;6.70;;;4.07;;
13014;SDS011;6573;57.696;11.950;2023-01-26T09:19:23;7.73;;;4.87;;
13014;SDS011;6573;57.696;11.950;2023-01-26T09:21:51;4.20;;;2.90;;
13014;SDS011;6573;57.696;11.950;2023-01-26T09:24:20;8.07;;;4.00;;
13014;SDS011;6573;57.696;11.950;2023-01-26T09:26:49;4.23;;;2.93;;
13014;SDS011;6573;57.696;11.950;2023-01-26T09:29:17;5.23;;;2.10;;
13014;SDS011;6573;57.696;11.950;2023-01-26T09:31:47;3.57;;;2.07;;
13014;SDS011;6573;57.696;11.950;2023-01-26T09:34:16;2.33;;;1.90;;
13014;SDS011;6573;57.696;11.950;2023-01-26T09:36:44;3.20;;;2.20;;
13014;SDS011;6573;57.696;11.950;2023-01-26T09:39:12;4.23;;;2.00;;
13014;SDS011;6573;57.696;11.950;2023-01-26T09:44:47;4.77;;;2.10;;
13014;SDS011;6573;57.696;11.950;2023-01-26T09:47:25;3.93;;;2.13;;
13014;SDS011;6573;57.696;11.950;2023-01-26T09:50:03;2.53;;;1.40;;
13014;SDS011;6573;57.696;11.950;2023-01-26T09:52:41;3.37;;;1.70;;
13014;SDS011;6573;57.696;11.950;2023-01-26T09:55:21;3.73;;;1.60;;
13014;SDS011;6573;57.696;11.950;2023-01-26T09:57:52;3.17;;;2.00;;
13014;SDS011;6573;57.696;11.950;2023-01-26T10:00:25;2.43;;;1.43;;
13014;SDS011;6573;57.696;11.950;2023-01-26T10:03:04;3.00;;;2.10;;
13014;SDS011;6573;57.696;11.950;2023-01-26T10:05:41;7.03;;;3.83;;
13014;SDS011;6573;57.696;11.950;2023-01-26T10:08:14;3.20;;;2.47;;
13014;SDS011;6573;57.696;11.950;2023-01-26T10:10:46;3.63;;;2.07;;
13014;SDS011;6573;57.696;11.950;2023-01-26T10:13:17;2.57;;;1.50;;
13014;SDS011;6573;57.696;11.950;2023-01-26T10:15:48;4.03;;;1.60;;
13014;SDS011;6573;57.696;11.950;2023-01-26T10:18:23;2.93;;;1.87;;
13014;SDS011;6573;57.696;11.950;2023-01-26T10:20:55;5.73;;;1.50;;
13014;SDS011;6573;57.696;11.950;2023-01-26T10:23:27;1.93;;;1.30;;
13014;SDS011;6573;57.696;11.950;2023-01-26T10:25:57;1.40;;;1.23;;
13014;SDS011;6573;57.696;11.950;2023-01-26T10:28:34;1.77;;;1.30;;
13014;SDS011;6573;57.696;11.950;2023-01-26T10:31:03;6.10;;;1.80;;
13014;SDS011;6573;57.696;11.950;2023-01-26T10:33:36;2.27;;;1.27;;
13014;SDS011;6573;57.696;11.950;2023-01-26T10:36:06;1.80;;;1.20;;
13014;SDS011;6573;57.696;11.950;2023-01-26T10:38:40;1.10;;;1.00;;
13014;SDS011;6573;57.696;11.950;2023-01-26T10:41:23;1.90;;;1.10;;
13014;SDS011;6573;57.696;11.950;2023-01-26T10:43:54;1.40;;;1.00;;
13014;SDS011;6573;57.696;11.950;2023-01-26T10:46:25;1.50;;;0.93;;
13014;SDS011;6573;57.696;11.950;2023-01-26T10:48:57;2.53;;;1.30;;
13014;SDS011;6573;57.696;11.950;2023-01-26T10:51:28;2.23;;;1.60;;
13014;SDS011;6573;57.696;11.950;2023-01-26T10:56:48;3.40;;;2.00;;
13014;SDS011;6573;57.696;11.950;2023-01-26T10:59:25;2.33;;;1.70;;
13014;SDS011;6573;57.696;11.950;2023-01-26T11:01:59;3.97;;;1.57;;
13014;SDS011;6573;57.696;11.950;2023-01-26T11:04:30;3.00;;;1.30;;
13014;SDS011;6573;57.696;11.950;2023-01-26T11:09:51;2.30;;;1.23;;
13014;SDS011;6573;57.696;11.950;2023-01-26T11:12:21;1.33;;;0.87;;
13014;SDS011;6573;57.696;11.950;2023-01-26T11:14:59;6.33;;;2.70;;
13014;SDS011;6573;57.696;11.950;2023-01-26T11:17:30;3.93;;;1.70;;
13014;SDS011;6573;57.696;11.950;2023-01-26T11:20:13;2.90;;;1.87;;
13014;SDS011;6573;57.696;11.950;2023-01-26T11:23:03;3.70;;;2.27;;
13014;SDS011;6573;57.696;11.950;2023-01-26T11:25:43;2.03;;;1.27;;
13014;SDS011;6573;57.696;11.950;2023-01-26T11:28:27;2.23;;;1.60;;
13014;SDS011;6573;57.696;11.950;2023-01-26T11:31:10;5.10;;;2.87;;
13014;SDS011;6573;57.696;11.950;2023-01-26T11:33:51;3.13;;;1.70;;
13014;SDS011;6573;57.696;11.950;2023-01-26T11:36:33;1.60;;;1.10;;
13014;SDS011;6573;57.696;11.950;2023-01-26T11:39:11;3.30;;;1.10;;
13014;SDS011;6573;57.696;11.950;2023-01-26T11:41:50;4.10;;;2.20;;
13014;SDS011;6573;57.696;11.950;2023-01-26T11:44:35;3.60;;;1.87;;
13014;SDS011;6573;57.696;11.950;2023-01-26T11:47:24;2.50;;;1.77;;
13014;SDS011;6573;57.696;11.950;2023-01-26T11:50:12;5.43;;;1.50;;
13014;SDS011;6573;57.696;11.950;2023-01-26T11:53:08;3.77;;;1.60;;
13014;SDS011;6573;57.696;11.950;2023-01-26T11:55:53;4.00;;;2.40;;
13014;SDS011;6573;57.696;11.950;2023-01-26T11:58:33;1.77;;;1.10;;
13014;SDS011;6573;57.696;11.950;2023-01-26T12:01:08;2.53;;;0.80;;
13014;SDS011;6573;57.696;11.950;2023-01-26T12:03:46;3.73;;;1.77;;
13014;SDS011;6573;57.696;11.950;2023-01-26T12:06:19;6.33;;;5.23;;
13014;SDS011;6573;57.696;11.950;2023-01-26T12:09:01;7.13;;;4.43;;
13014;SDS011;6573;57.696;11.950;2023-01-26T12:11:37;0.97;;;0.70;;
13014;SDS011;6573;57.696;11.950;2023-01-26T12:14:15;1.27;;;0.80;;
13014;SDS011;6573;57.696;11.950;2023-01-26T12:16:52;1.80;;;0.83;;
13014;SDS011;6573;57.696;11.950;2023-01-26T12:19:44;2.87;;;1.17;;
13014;SDS011;6573;57.696;11.950;2023-01-26T12:22:21;1.47;;;0.80;;
13014;SDS011;6573;57.696;11.950;2023-01-26T12:24:57;0.73;;;0.67;;
13014;SDS011;6573;57.696;11.950;2023-01-26T12:27:46;1.57;;;1.00;;
13014;SDS011;6573;57.696;11.950;2023-01-26T12:30:25;1.27;;;0.80;;
13014;SDS011;6573;57.696;11.950;2023-01-26T12:33:01;2.13;;;1.20;;
13014;SDS011;6573;57.696;11.950;2023-01-26T12:35:42;1.17;;;1.00;;
13014;SDS011;6573;57.696;11.950;2023-01-26T12:38:17;3.37;;;1.00;;
13014;SDS011;6573;57.696;11.950;2023-01-26T12:40:54;1.70;;;0.63;;
13014;SDS011;6573;57.696;11.950;2023-01-26T12:43:39;0.70;;;0.60;;
13014;SDS011;6573;57.696;11.950;2023-01-26T12:46:21;2.33;;;0.80;;
13014;SDS011;6573;57.696;11.950;2023-01-26T12:48:54;2.77;;;1.77;;
13014;SDS011;6573;57.696;11.950;2023-01-26T12:51:30;2.37;;;1.20;;
13014;SDS011;6573;57.696;11.950;2023-01-26T12:54:02;4.47;;;1.13;;
13014;SDS011;6573;57.696;11.950;2023-01-26T12:56:41;2.67;;;1.47;;
13014;SDS011;6573;57.696;11.950;2023-01-26T12:59:14;3.23;;;1.27;;
13014;SDS011;6573;57.696;11.950;2023-01-26T13:02:10;2.90;;;1.20;;
13014;SDS011;6573;57.696;11.950;2023-01-26T13:04:56;2.83;;;1.10;;
13014;SDS011;6573;57.696;11.950;2023-01-26T13:07:31;2.07;;;0.80;;
13014;SDS011;6573;57.696;11.950;2023-01-26T13:10:19;2.63;;;1.10;;
13014;SDS011;6573;57.696;11.950;2023-01-26T13:12:51;3.27;;;0.97;;
13014;SDS011;6573;57.696;11.950;2023-01-26T13:15:21;1.63;;;0.80;;
13014;SDS011;6573;57.696;11.950;2023-01-26T13:17:52;2.17;;;0.80;;
13014;SDS011;6573;57.696;11.950;2023-01-26T13:29:29;4.57;;;0.90;;
13014;SDS011;6573;57.696;11.950;2023-01-26T13:35:02;2.17;;;0.80;;
13014;SDS011;6573;57.696;11.950;2023-01-26T13:37:42;1.03;;;0.60;;
13014;SDS011;6573;57.696;11.950;2023-01-26T13:40:18;2.63;;;0.83;;
13014;SDS011;6573;57.696;11.950;2023-01-26T13:42:50;2.40;;;1.17;;
13014;SDS011;6573;57.696;11.950;2023-01-26T13:45:25;1.83;;;1.10;;
13014;SDS011;6573;57.696;11.950;2023-01-26T13:48:00;1.63;;;0.90;;
13014;SDS011;6573;57.696;11.950;2023-01-26T13:50:33;1.40;;;1.00;;
13014;SDS011;6573;57.696;11.950;2023-01-26T13:55:59;3.07;;;1.00;;
13014;SDS011;6573;57.696;11.950;2023-01-26T13:58:31;7.20;;;1.30;;
13014;SDS011;6573;57.696;11.950;2023-01-26T14:01:03;11.50;;;1.67;;
13014;SDS011;6573;57.696;11.950;2023-01-26T14:03:33;2.70;;;1.00;;
13014;SDS011;6573;57.696;11.950;2023-01-26T14:06:04;6.30;;;1.70;;
13014;SDS011;6573;57.696;11.950;2023-01-26T14:08:37;1.53;;;1.20;;
13014;SDS011;6573;57.696;11.950;2023-01-26T14:11:13;2.40;;;1.20;;
13014;SDS011;6573;57.696;11.950;2023-01-26T14:13:45;3.03;;;1.30;;
13014;SDS011;6573;57.696;11.950;2023-01-26T14:16:22;4.10;;;1.50;;
13014;SDS011;6573;57.696;11.950;2023-01-26T14:19:02;2.37;;;1.10;;
13014;SDS011;6573;57.696;11.950;2023-01-26T14:21:33;7.50;;;1.50;;
13014;SDS011;6573;57.696;11.950;2023-01-26T14:24:14;1.57;;;0.80;;
13014;SDS011;6573;57.696;11.950;2023-01-26T14:26:43;1.87;;;1.20;;
13014;SDS011;6573;57.696;11.950;2023-01-26T14:29:12;3.40;;;1.37;;
13014;SDS011;6573;57.696;11.950;2023-01-26T14:31:49;3.80;;;1.40;;
13014;SDS011;6573;57.696;11.950;2023-01-26T14:34:19;2.13;;;1.10;;
13014;SDS011;6573;57.696;11.950;2023-01-26T14:37:05;2.27;;;0.93;;
13014;SDS011;6573;57.696;11.950;2023-01-26T14:39:38;7.73;;;1.70;;
13014;SDS011;6573;57.696;11.950;2023-01-26T14:42:08;4.47;;;1.37;;
13014;SDS011;6573;57.696;11.950;2023-01-26T14:44:41;3.37;;;1.53;;
13014;SDS011;6573;57.696;11.950;2023-01-26T14:47:14;4.23;;;2.23;;
13014;SDS011;6573;57.696;11.950;2023-01-26T14:49:50;4.57;;;1.03;;
13014;SDS011;6573;57.696;11.950;2023-01-26T14:52:24;3.97;;;1.27;;
13014;SDS011;6573;57.696;11.950;2023-01-26T14:54:57;4.57;;;1.60;;
13014;SDS011;6573;57.696;11.950;2023-01-26T14:57:34;2.93;;;1.23;;
13014;SDS011;6573;57.696;11.950;2023-01-26T15:00:03;7.07;;;1.60;;
13014;SDS011;6573;57.696;11.950;2023-01-26T15:02:42;3.67;;;1.23;;
13014;SDS011;6573;57.696;11.950;2023-01-26T15:05:14;4.37;;;1.43;;
13014;SDS011;6573;57.696;11.950;2023-01-26T15:07:47;4.17;;;1.30;;
13014;SDS011;6573;57.696;11.950;2023-01-26T15:10:26;2.00;;;1.17;;
13014;SDS011;6573;57.696;11.950;2023-01-26T15:13:01;1.73;;;1.00;;
13014;SDS011;6573;57.696;11.950;2023-01-26T15:15:33;4.80;;;1.23;;
13014;SDS011;6573;57.696;11.950;2023-01-26T15:18:17;4.83;;;1.80;;
13014;SDS011;6573;57.696;11.950;2023-01-26T15:20:52;3.63;;;1.20;;
13014;SDS011;6573;57.696;11.950;2023-01-26T15:23:26;6.80;;;1.40;;
13014;SDS011;6573;57.696;11.950;2023-01-26T15:26:04;6.67;;;1.50;;
13014;SDS011;6573;57.696;11.950;2023-01-26T15:28:34;4.87;;;1.40;;
13014;SDS011;6573;57.696;11.950;2023-01-26T15:31:04;6.07;;;1.40;;
13014;SDS011;6573;57.696;11.950;2023-01-26T15:33:43;3.47;;;1.30;;
13014;SDS011;6573;57.696;11.950;2023-01-26T15:36:22;3.10;;;1.10;;
13014;SDS011;6573;57.696;11.950;2023-01-26T15:38:57;4.03;;;1.30;;
13014;SDS011;6573;57.696;11.950;2023-01-26T15:41:29;2.77;;;1.20;;
13014;SDS011;6573;57.696;11.950;2023-01-26T15:43:58;4.67;;;1.87;;
13014;SDS011;6573;57.696;11.950;2023-01-26T15:46:26;5.87;;;1.30;;
13014;SDS011;6573;57.696;11.950;2023-01-26T15:48:56;5.20;;;1.60;;